Terminal Aerodrome Forecast
Issued by NWS

Current Version | Previous Version | Text Only | Print | Product List | Glossary On
Versions: 1 2 3 4 5 6 7 8 9 10 11 12 13 14 15 16 17 18 19 20 21 22 23 24 25 26
000
FTUS46 KSEW 272300 RRA
TAFSEA
TAF
KSEA 272341Z 2800/2906 20015G25KT P6SM -SHRA SCT017 BKN030 OVC060
     FM280300 20014G24KT P6SM -SHRA BKN017 BKN030 OVC100
     FM281200 20012G24KT 6SM RA BR OVC012
     FM281500 01010KT 4SM -RA BR OVC012
     FM282000 20008KT P6SM VCSH SCT012 OVC025
     FM290200 20010KT P6SM SCT025=

USA.gov is the U.S. government's official web portal to all federal, state and local government web resources and services.